sensor_id;sensor_type;location;lat;lon;timestamp;pressure;altitude;pressure_sealevel;temperature;humidity
8451;BME280;4262;50.980;13.892;2023-04-27T03:31:10;50286.84;;;-142.97;31.32
8451;BME280;4262;50.980;13.892;2023-04-27T03:33:38;50296.59;;;-142.97;31.03
8451;BME280;4262;50.980;13.892;2023-04-27T03:36:07;50327.78;;;-142.97;30.95
8451;BME280;4262;50.980;13.892;2023-04-27T03:38:35;50308.28;;;-142.97;31.15
8451;BME280;4262;50.980;13.892;2023-04-27T03:41:02;50290.75;;;-142.97;31.24
8451;BME280;4262;50.980;13.892;2023-04-27T03:43:29;50302.44;;;-142.97;31.49
8451;BME280;4262;50.980;13.892;2023-04-27T03:45:55;50337.53;;;-142.97;31.66
8451;BME280;4262;50.980;13.892;2023-04-27T03:48:24;50302.44;;;-142.97;31.62
8451;BME280;4262;50.980;13.892;2023-04-27T03:50:53;50345.34;;;-142.97;31.09
8451;BME280;4262;50.980;13.892;2023-04-27T03:53:20;50310.25;;;-142.97;31.57
8451;BME280;4262;50.980;13.892;2023-04-27T03:55:48;50300.50;;;-142.97;31.78
8451;BME280;4262;50.980;13.892;2023-04-27T03:58:15;50286.84;;;-142.97;31.78
8451;BME280;4262;50.980;13.892;2023-04-27T04:01:05;50306.34;;;-142.97;31.85
8451;BME280;4262;50.980;13.892;2023-04-27T04:03:36;50300.50;;;-142.97;31.49
8451;BME280;4262;50.980;13.892;2023-04-27T04:06:06;50290.75;;;-142.97;31.10
8451;BME280;4262;50.980;13.892;2023-04-27T04:08:33;50321.94;;;-142.97;31.37
8451;BME280;4262;50.980;13.892;2023-04-27T04:11:00;50286.84;;;-142.97;31.13
8451;BME280;4262;50.980;13.892;2023-04-27T04:13:27;50325.84;;;-142.97;31.57
8451;BME280;4262;50.980;13.892;2023-04-27T04:16:02;50273.19;;;-142.97;31.51
8451;BME280;4262;50.980;13.892;2023-04-27T04:18:28;50321.94;;;-142.97;31.28
8451;BME280;4262;50.980;13.892;2023-04-27T04:20:57;50316.09;;;-142.97;31.39
8451;BME280;4262;50.980;13.892;2023-04-27T04:23:24;50306.34;;;-142.97;31.68
8451;BME280;4262;50.980;13.892;2023-04-27T04:25:52;50310.25;;;-142.97;31.58
8451;BME280;4262;50.980;13.892;2023-04-27T04:28:20;50294.63;;;-142.97;31.31
8451;BME280;4262;50.980;13.892;2023-04-27T04:30:47;50314.13;;;-142.97;31.17
8451;BME280;4262;50.980;13.892;2023-04-27T04:33:14;50327.78;;;-142.97;30.58
8451;BME280;4262;50.980;13.892;2023-04-27T04:35:42;50306.34;;;-142.97;31.01
8451;BME280;4262;50.980;13.892;2023-04-27T04:38:10;50269.28;;;-142.97;31.06
8451;BME280;4262;50.980;13.892;2023-04-27T04:40:39;50341.44;;;-142.97;31.34
8451;BME280;4262;50.980;13.892;2023-04-27T04:43:07;50279.03;;;-142.97;31.08
8451;BME280;4262;50.980;13.892;2023-04-27T04:45:35;50323.88;;;-142.97;30.68
8451;BME280;4262;50.980;13.892;2023-04-27T04:48:02;50335.59;;;-142.97;31.00
8451;BME280;4262;50.980;13.892;2023-04-27T04:50:29;50327.78;;;-142.97;31.27
8451;BME280;4262;50.980;13.892;2023-04-27T04:52:56;50325.84;;;-142.97;31.07
8451;BME280;4262;50.980;13.892;2023-04-27T04:55:26;50279.03;;;-142.97;31.20
8451;BME280;4262;50.980;13.892;2023-04-27T04:57:53;50294.63;;;-142.97;30.93
8451;BME280;4262;50.980;13.892;2023-04-27T05:00:20;50300.50;;;-142.97;30.95
8451;BME280;4262;50.980;13.892;2023-04-27T05:02:47;50284.91;;;-142.97;31.09
8451;BME280;4262;50.980;13.892;2023-04-27T05:05:16;50314.13;;;-142.97;31.16
8451;BME280;4262;50.980;13.892;2023-04-27T05:07:42;50284.91;;;-142.97;31.65
8451;BME280;4262;50.980;13.892;2023-04-27T05:10:09;50335.59;;;-142.97;31.79
8451;BME280;4262;50.980;13.892;2023-04-27T05:12:37;50292.69;;;-142.97;31.50
8451;BME280;4262;50.980;13.892;2023-04-27T05:15:06;50306.34;;;-142.97;31.12
8451;BME280;4262;50.980;13.892;2023-04-27T05:17:33;50294.63;;;-142.97;31.46
8451;BME280;4262;50.980;13.892;2023-04-27T05:20:00;50296.59;;;-142.97;31.31
8451;BME280;4262;50.980;13.892;2023-04-27T05:22:27;50298.53;;;-142.97;31.52
8451;BME280;4262;50.980;13.892;2023-04-27T05:24:53;50279.03;;;-142.97;30.96
8451;BME280;4262;50.980;13.892;2023-04-27T05:27:23;50321.94;;;-142.97;30.91
8451;BME280;4262;50.980;13.892;2023-04-27T05:29:51;50290.75;;;-142.97;30.43
8451;BME280;4262;50.980;13.892;2023-04-27T05:32:18;50335.59;;;-142.97;30.52
8451;BME280;4262;50.980;13.892;2023-04-27T05:34:44;50312.19;;;-142.97;31.05
8451;BME280;4262;50.980;13.892;2023-04-27T05:37:13;50292.69;;;-142.97;31.02
8451;BME280;4262;50.980;13.892;2023-04-27T05:39:39;50310.25;;;-142.97;30.88
8451;BME280;4262;50.980;13.892;2023-04-27T05:42:06;50294.63;;;-142.97;30.68
8451;BME280;4262;50.980;13.892;2023-04-27T05:44:35;50292.69;;;-142.97;30.66
8451;BME280;4262;50.980;13.892;2023-04-27T05:47:02;50306.34;;;-142.97;30.47
8451;BME280;4262;50.980;13.892;2023-04-27T05:49:29;50271.25;;;-142.97;30.21
8451;BME280;4262;50.980;13.892;2023-04-27T05:51:56;50302.44;;;-142.97;30.18
8451;BME280;4262;50.980;13.892;2023-04-27T05:54:23;50255.66;;;-142.97;30.50
8451;BME280;4262;50.980;13.892;2023-04-27T05:56:50;50279.03;;;-142.97;29.99
8451;BME280;4262;50.980;13.892;2023-04-27T05:59:17;50263.44;;;-142.97;29.97
8451;BME280;4262;50.980;13.892;2023-04-27T06:01:44;50271.25;;;-142.97;29.71
8451;BME280;4262;50.980;13.892;2023-04-27T06:04:12;50284.91;;;-142.97;30.26
8451;BME280;4262;50.980;13.892;2023-04-27T06:06:40;50267.34;;;-142.97;29.39
8451;BME280;4262;50.980;13.892;2023-04-27T06:09:07;50275.16;;;-142.97;29.51
8451;BME280;4262;50.980;13.892;2023-04-27T06:11:33;50282.94;;;-142.97;29.67
8451;BME280;4262;50.980;13.892;2023-04-27T06:14:00;50265.41;;;-142.97;29.87
8451;BME280;4262;50.980;13.892;2023-04-27T06:16:29;50292.69;;;-142.97;29.67
8451;BME280;4262;50.980;13.892;2023-04-27T06:18:55;50269.28;;;-142.97;29.76
8451;BME280;4262;50.980;13.892;2023-04-27T06:21:23;50279.03;;;-142.97;29.41
8451;BME280;4262;50.980;13.892;2023-04-27T06:23:51;50263.44;;;-142.97;29.00
8451;BME280;4262;50.980;13.892;2023-04-27T06:26:18;50277.09;;;-142.97;29.46
8451;BME280;4262;50.980;13.892;2023-04-27T06:28:44;50255.66;;;-142.97;29.44
8451;BME280;4262;50.980;13.892;2023-04-27T06:31:12;50253.69;;;-142.97;29.43
8451;BME280;4262;50.980;13.892;2023-04-27T06:33:39;50247.84;;;-142.97;29.14
8451;BME280;4262;50.980;13.892;2023-04-27T06:36:07;50240.06;;;-142.97;29.38
8451;BME280;4262;50.980;13.892;2023-04-27T06:38:35;50247.84;;;-142.97;28.93
8451;BME280;4262;50.980;13.892;2023-04-27T06:41:02;50275.16;;;-142.97;29.24
8451;BME280;4262;50.980;13.892;2023-04-27T06:43:29;50275.16;;;-142.97;28.58
8451;BME280;4262;50.980;13.892;2023-04-27T06:45:57;50259.56;;;-142.97;28.39
8451;BME280;4262;50.980;13.892;2023-04-27T06:48:24;50253.69;;;-142.97;28.73
8451;BME280;4262;50.980;13.892;2023-04-27T06:50:50;50232.25;;;-142.97;28.52
8451;BME280;4262;50.980;13.892;2023-04-27T06:53:17;50236.16;;;-142.97;27.98
8451;BME280;4262;50.980;13.892;2023-04-27T06:55:45;50236.16;;;-142.97;28.09
8451;BME280;4262;50.980;13.892;2023-04-27T06:58:12;50218.59;;;-142.97;27.26
8451;BME280;4262;50.980;13.892;2023-04-27T07:00:39;50208.84;;;-142.97;27.09
8451;BME280;4262;50.980;13.892;2023-04-27T07:03:06;50208.84;;;-142.97;26.69
8451;BME280;4262;50.980;13.892;2023-04-27T07:05:34;50257.59;;;-142.97;26.61
8451;BME280;4262;50.980;13.892;2023-04-27T07:08:01;50247.84;;;-142.97;26.29
8451;BME280;4262;50.980;13.892;2023-04-27T07:10:29;50265.41;;;-142.97;26.16
8451;BME280;4262;50.980;13.892;2023-04-27T07:12:57;50226.41;;;-142.97;26.06
8451;BME280;4262;50.980;13.892;2023-04-27T07:15:24;50240.06;;;-142.97;25.56
8451;BME280;4262;50.980;13.892;2023-04-27T07:17:52;50222.50;;;-142.97;25.15
8451;BME280;4262;50.980;13.892;2023-04-27T07:20:19;50201.06;;;-142.97;24.92
8451;BME280;4262;50.980;13.892;2023-04-27T07:22:46;50261.50;;;-142.97;24.42
8451;BME280;4262;50.980;13.892;2023-04-27T07:25:13;50238.09;;;-142.97;25.09
8451;BME280;4262;50.980;13.892;2023-04-27T07:27:40;50232.25;;;-142.97;24.04
8451;BME280;4262;50.980;13.892;2023-04-27T07:30:09;50249.81;;;-142.97;25.08
8451;BME280;4262;50.980;13.892;2023-04-27T07:32:39;50216.66;;;-142.97;24.43
8451;BME280;4262;50.980;13.892;2023-04-27T07:35:06;50228.34;;;-142.97;23.84
8451;BME280;4262;50.980;13.892;2023-04-27T07:37:35;50247.84;;;-142.97;24.53
8451;BME280;4262;50.980;13.892;2023-04-27T07:40:03;50179.63;;;-142.97;24.53
8451;BME280;4262;50.980;13.892;2023-04-27T07:42:36;50214.72;;;-142.97;24.41
8451;BME280;4262;50.980;13.892;2023-04-27T07:45:04;50189.38;;;-142.97;23.71
8451;BME280;4262;50.980;13.892;2023-04-27T07:47:34;50175.72;;;-142.97;23.51
8451;BME280;4262;50.980;13.892;2023-04-27T07:50:00;50140.63;;;-142.97;23.75
8451;BME280;4262;50.980;13.892;2023-04-27T07:52:30;50187.41;;;-142.97;23.27
8451;BME280;4262;50.980;13.892;2023-04-27T07:54:57;50175.72;;;-142.97;23.10
8451;BME280;4262;50.980;13.892;2023-04-27T07:57:25;50169.88;;;-142.97;23.55
8451;BME280;4262;50.980;13.892;2023-04-27T07:59:52;50150.38;;;-142.97;22.79
8451;BME280;4262;50.980;13.892;2023-04-27T08:02:19;50113.34;;;-142.97;23.16
8451;BME280;4262;50.980;13.892;2023-04-27T08:04:48;50121.13;;;-142.97;22.68
8451;BME280;4262;50.980;13.892;2023-04-27T08:07:18;50144.53;;;-142.97;23.33
8451;BME280;4262;50.980;13.892;2023-04-27T08:09:45;50126.97;;;-142.97;23.45
8451;BME280;4262;50.980;13.892;2023-04-27T08:12:12;50130.88;;;-142.97;23.20
8451;BME280;4262;50.980;13.892;2023-04-27T08:14:39;50171.81;;;-142.97;22.99
8451;BME280;4262;50.980;13.892;2023-04-27T08:17:08;50150.38;;;-142.97;22.55
8451;BME280;4262;50.980;13.892;2023-04-27T08:19:36;50150.38;;;-142.97;21.96
8451;BME280;4262;50.980;13.892;2023-04-27T08:22:04;50146.47;;;-142.97;22.31
8451;BME280;4262;50.980;13.892;2023-04-27T08:24:31;50144.53;;;-142.97;21.95
8451;BME280;4262;50.980;13.892;2023-04-27T08:26:58;50132.81;;;-142.97;21.79
8451;BME280;4262;50.980;13.892;2023-04-27T08:29:25;50144.53;;;-142.97;22.77
8451;BME280;4262;50.980;13.892;2023-04-27T08:31:51;50148.41;;;-142.97;21.99
8451;BME280;4262;50.980;13.892;2023-04-27T08:34:18;50136.72;;;-142.97;21.80
8451;BME280;4262;50.980;13.892;2023-04-27T08:36:46;50107.47;;;-142.97;20.98
8451;BME280;4262;50.980;13.892;2023-04-27T08:39:15;50109.44;;;-142.97;21.30
8451;BME280;4262;50.980;13.892;2023-04-27T08:41:42;50084.09;;;-142.97;21.34
8451;BME280;4262;50.980;13.892;2023-04-27T08:44:09;50082.13;;;-142.97;21.08
8451;BME280;4262;50.980;13.892;2023-04-27T08:46:37;50236.16;;;-142.97;21.28
8451;BME280;4262;50.980;13.892;2023-04-27T08:49:04;50224.47;;;-142.97;21.39
8451;BME280;4262;50.980;13.892;2023-04-27T08:51:32;50224.47;;;-142.97;22.62
8451;BME280;4262;50.980;13.892;2023-04-27T08:53:59;50253.69;;;-142.97;22.16
8451;BME280;4262;50.980;13.892;2023-04-27T08:56:29;50238.09;;;-142.97;22.63
8451;BME280;4262;50.980;13.892;2023-04-27T08:58:57;50187.41;;;-142.97;22.56
8451;BME280;4262;50.980;13.892;2023-04-27T09:01:24;50179.63;;;-142.97;22.06
8451;BME280;4262;50.980;13.892;2023-04-27T09:03:55;50243.94;;;-142.97;21.51
8451;BME280;4262;50.980;13.892;2023-04-27T09:06:30;50089.94;;;-142.97;21.99
8451;BME280;4262;50.980;13.892;2023-04-27T09:08:58;50082.13;;;-142.97;21.66
8451;BME280;4262;50.980;13.892;2023-04-27T09:11:31;50058.75;;;-142.97;20.69
8451;BME280;4262;50.980;13.892;2023-04-27T09:14:01;50282.94;;;-142.97;21.00
8451;BME280;4262;50.980;13.892;2023-04-27T09:16:30;50292.69;;;-142.97;21.65
8451;BME280;4262;50.980;13.892;2023-04-27T09:18:57;50099.69;;;-142.97;22.05
8451;BME280;4262;50.980;13.892;2023-04-27T09:21:26;50185.47;;;-142.97;22.11
8451;BME280;4262;50.980;13.892;2023-04-27T09:23:54;50060.69;;;-142.97;22.21
8451;BME280;4262;50.980;13.892;2023-04-27T09:26:24;50066.53;;;-142.97;21.57
8451;BME280;4262;50.980;13.892;2023-04-27T09:28:54;50064.59;;;-142.97;21.35
8451;BME280;4262;50.980;13.892;2023-04-27T09:31:30;50066.53;;;-142.97;20.01
8451;BME280;4262;50.980;13.892;2023-04-27T09:33:56;50249.81;;;-142.97;21.08
8451;BME280;4262;50.980;13.892;2023-04-27T09:36:25;50054.84;;;-142.97;20.63
8451;BME280;4262;50.980;13.892;2023-04-27T09:38:52;50097.72;;;-142.97;20.73
8451;BME280;4262;50.980;13.892;2023-04-27T09:41:19;50043.16;;;-142.97;20.33
8451;BME280;4262;50.980;13.892;2023-04-27T09:43:46;50282.94;;;-142.97;21.08
8451;BME280;4262;50.980;13.892;2023-04-27T09:46:14;50271.25;;;-142.97;21.25
8451;BME280;4262;50.980;13.892;2023-04-27T09:48:43;50245.91;;;-142.97;20.77
8451;BME280;4262;50.980;13.892;2023-04-27T09:51:10;50279.03;;;-142.97;22.20
8451;BME280;4262;50.980;13.892;2023-04-27T09:53:40;50191.31;;;-142.97;21.54
8451;BME280;4262;50.980;13.892;2023-04-27T09:56:22;50243.94;;;-142.97;21.65
8451;BME280;4262;50.980;13.892;2023-04-27T09:59:04;50261.50;;;-142.97;21.71
8451;BME280;4262;50.980;13.892;2023-04-27T10:01:38;50263.44;;;-142.97;21.96
8451;BME280;4262;50.980;13.892;2023-04-27T10:04:20;50068.50;;;-142.97;21.41
8451;BME280;4262;50.980;13.892;2023-04-27T10:06:58;50033.41;;;-142.97;21.35
8451;BME280;4262;50.980;13.892;2023-04-27T10:09:25;50010.00;;;-142.97;21.12
8451;BME280;4262;50.980;13.892;2023-04-27T10:11:55;50074.34;;;-142.97;20.86
8451;BME280;4262;50.980;13.892;2023-04-27T10:14:23;50242.00;;;-142.97;21.53
8451;BME280;4262;50.980;13.892;2023-04-27T10:16:54;50234.19;;;-142.97;22.35
8451;BME280;4262;50.980;13.892;2023-04-27T10:19:23;50056.78;;;-142.97;22.07
8451;BME280;4262;50.980;13.892;2023-04-27T10:21:54;50226.41;;;-142.97;21.30
8451;BME280;4262;50.980;13.892;2023-04-27T10:24:33;50275.16;;;-142.97;21.49
8451;BME280;4262;50.980;13.892;2023-04-27T10:27:04;50249.81;;;-142.97;21.90
8451;BME280;4262;50.980;13.892;2023-04-27T10:29:35;50279.03;;;-142.97;22.11
8451;BME280;4262;50.980;13.892;2023-04-27T10:32:08;50263.44;;;-142.97;22.21
8451;BME280;4262;50.980;13.892;2023-04-27T10:34:35;50234.19;;;-142.97;21.68
8451;BME280;4262;50.980;13.892;2023-04-27T10:37:05;50220.56;;;-142.97;21.72
8451;BME280;4262;50.980;13.892;2023-04-27T10:39:34;50230.31;;;-142.97;21.57
8451;BME280;4262;50.980;13.892;2023-04-27T10:42:02;50240.06;;;-142.97;21.62
8451;BME280;4262;50.980;13.892;2023-04-27T10:44:30;50269.28;;;-142.97;22.05
8451;BME280;4262;50.980;13.892;2023-04-27T10:47:10;50240.06;;;-142.97;22.31
8451;BME280;4262;50.980;13.892;2023-04-27T10:49:38;50243.94;;;-142.97;22.19
8451;BME280;4262;50.980;13.892;2023-04-27T10:52:05;50232.25;;;-142.97;22.47
8451;BME280;4262;50.980;13.892;2023-04-27T10:54:32;50242.00;;;-142.97;22.61
8451;BME280;4262;50.980;13.892;2023-04-27T10:57:05;50236.16;;;-142.97;22.75
8451;BME280;4262;50.980;13.892;2023-04-27T10:59:32;50230.31;;;-142.97;22.94
8451;BME280;4262;50.980;13.892;2023-04-27T11:01:59;50183.50;;;-142.97;22.29
8451;BME280;4262;50.980;13.892;2023-04-27T11:04:38;50201.06;;;-142.97;22.84
8451;BME280;4262;50.980;13.892;2023-04-27T11:07:07;50191.31;;;-142.97;22.60
8451;BME280;4262;50.980;13.892;2023-04-27T11:09:34;50206.91;;;-142.97;22.52
8451;BME280;4262;50.980;13.892;2023-04-27T11:12:05;50238.09;;;-142.97;22.74
8451;BME280;4262;50.980;13.892;2023-04-27T11:14:33;50226.41;;;-142.97;23.13
8451;BME280;4262;50.980;13.892;2023-04-27T11:17:01;50074.34;;;-142.97;21.92
8451;BME280;4262;50.980;13.892;2023-04-27T11:19:28;50183.50;;;-142.97;21.75
8451;BME280;4262;50.980;13.892;2023-04-27T11:22:05;50251.75;;;-142.97;22.18
8451;BME280;4262;50.980;13.892;2023-04-27T11:24:32;50236.16;;;-142.97;22.09
8451;BME280;4262;50.980;13.892;2023-04-27T11:27:00;50238.09;;;-142.97;22.18
8451;BME280;4262;50.980;13.892;2023-04-27T11:29:36;50269.28;;;-142.97;21.94
8451;BME280;4262;50.980;13.892;2023-04-27T11:32:04;50251.75;;;-142.97;22.05
8451;BME280;4262;50.980;13.892;2023-04-27T11:34:31;50050.94;;;-142.97;22.38
8451;BME280;4262;50.980;13.892;2023-04-27T11:37:05;50185.47;;;-142.97;21.14
8451;BME280;4262;50.980;13.892;2023-04-27T11:39:34;50004.16;;;-142.97;20.25
8451;BME280;4262;50.980;13.892;2023-04-27T11:42:15;50185.47;;;-142.97;20.52
8451;BME280;4262;50.980;13.892;2023-04-27T11:44:48;50249.81;;;-142.97;20.98
8451;BME280;4262;50.980;13.892;2023-04-27T11:47:16;50232.25;;;-142.97;21.78
8451;BME280;4262;50.980;13.892;2023-04-27T11:49:45;50259.56;;;-142.97;22.82
8451;BME280;4262;50.980;13.892;2023-04-27T11:52:13;50243.94;;;-142.97;22.25
8451;BME280;4262;50.980;13.892;2023-04-27T11:54:46;50253.69;;;-142.97;22.23
8451;BME280;4262;50.980;13.892;2023-04-27T11:57:15;50236.16;;;-142.97;22.01
8451;BME280;4262;50.980;13.892;2023-04-27T11:59:41;50144.53;;;-142.97;22.48
8451;BME280;4262;50.980;13.892;2023-04-27T12:02:08;50243.94;;;-142.97;21.96
8451;BME280;4262;50.980;13.892;2023-04-27T12:04:35;50195.22;;;-142.97;22.17
8451;BME280;4262;50.980;13.892;2023-04-27T12:07:01;50197.16;;;-142.97;21.79
8451;BME280;4262;50.980;13.892;2023-04-27T12:09:30;50255.66;;;-142.97;21.65
8451;BME280;4262;50.980;13.892;2023-04-27T12:11:57;50238.09;;;-142.97;21.43
8451;BME280;4262;50.980;13.892;2023-04-27T12:14:24;50228.34;;;-142.97;20.88
8451;BME280;4262;50.980;13.892;2023-04-27T12:16:50;50259.56;;;-142.97;21.63
8451;BME280;4262;50.980;13.892;2023-04-27T12:19:19;50103.59;;;-142.97;20.74
8451;BME280;4262;50.980;13.892;2023-04-27T12:21:48;50197.16;;;-142.97;20.76
8451;BME280;4262;50.980;13.892;2023-04-27T12:24:15;50105.53;;;-142.97;20.81
8451;BME280;4262;50.980;13.892;2023-04-27T12:26:43;50097.72;;;-142.97;20.90
8451;BME280;4262;50.980;13.892;2023-04-27T12:29:11;50273.19;;;-142.97;21.58
8451;BME280;4262;50.980;13.892;2023-04-27T12:31:38;50072.38;;;-142.97;21.25
8451;BME280;4262;50.980;13.892;2023-04-27T12:34:05;50099.69;;;-142.97;21.29
8451;BME280;4262;50.980;13.892;2023-04-27T12:36:32;50165.97;;;-142.97;21.51
8451;BME280;4262;50.980;13.892;2023-04-27T12:39:12;50080.19;;;-142.97;21.39
8451;BME280;4262;50.980;13.892;2023-04-27T12:41:39;50080.19;;;-142.97;22.12
8451;BME280;4262;50.980;13.892;2023-04-27T12:44:07;50099.69;;;-142.97;22.23
8451;BME280;4262;50.980;13.892;2023-04-27T12:46:34;50271.25;;;-142.97;22.01
8451;BME280;4262;50.980;13.892;2023-04-27T12:49:03;50084.09;;;-142.97;21.37
8451;BME280;4262;50.980;13.892;2023-04-27T12:51:31;50095.78;;;-142.97;21.88
8451;BME280;4262;50.980;13.892;2023-04-27T12:53:58;50097.72;;;-142.97;20.78
8451;BME280;4262;50.980;13.892;2023-04-27T12:56:25;50089.94;;;-142.97;21.80
8451;BME280;4262;50.980;13.892;2023-04-27T12:58:52;50158.16;;;-142.97;21.70
8451;BME280;4262;50.980;13.892;2023-04-27T13:01:20;50136.72;;;-142.97;21.81
8451;BME280;4262;50.980;13.892;2023-04-27T13:03:50;50130.88;;;-142.97;21.76
8451;BME280;4262;50.980;13.892;2023-04-27T13:06:18;50125.03;;;-142.97;20.96
8451;BME280;4262;50.980;13.892;2023-04-27T13:08:46;50167.91;;;-142.97;21.21
8451;BME280;4262;50.980;13.892;2023-04-27T13:11:13;50154.28;;;-142.97;21.47
8451;BME280;4262;50.980;13.892;2023-04-27T13:13:40;50197.16;;;-142.97;21.92
8451;BME280;4262;50.980;13.892;2023-04-27T13:16:07;50130.88;;;-142.97;22.18
8451;BME280;4262;50.980;13.892;2023-04-27T13:18:36;50130.88;;;-142.97;22.16
8451;BME280;4262;50.980;13.892;2023-04-27T13:21:04;50191.31;;;-142.97;21.56
8451;BME280;4262;50.980;13.892;2023-04-27T13:23:31;50111.38;;;-142.97;21.05
8451;BME280;4262;50.980;13.892;2023-04-27T13:25:57;50150.38;;;-142.97;21.69
8451;BME280;4262;50.980;13.892;2023-04-27T13:28:26;50179.63;;;-142.97;21.27
8451;BME280;4262;50.980;13.892;2023-04-27T13:30:53;50126.97;;;-142.97;21.63
8451;BME280;4262;50.980;13.892;2023-04-27T13:33:20;50240.06;;;-142.97;21.29
8451;BME280;4262;50.980;13.892;2023-04-27T13:35:48;50197.16;;;-142.97;21.58
8451;BME280;4262;50.980;13.892;2023-04-27T13:38:17;50164.03;;;-142.97;21.34
8451;BME280;4262;50.980;13.892;2023-04-27T13:40:44;50171.81;;;-142.97;21.62
8451;BME280;4262;50.980;13.892;2023-04-27T13:43:11;50148.41;;;-142.97;21.68
8451;BME280;4262;50.980;13.892;2023-04-27T13:45:38;50187.41;;;-142.97;21.65
8451;BME280;4262;50.980;13.892;2023-04-27T13:48:08;50179.63;;;-142.97;21.58
8451;BME280;4262;50.980;13.892;2023-04-27T13:50:35;50206.91;;;-142.97;21.32
8451;BME280;4262;50.980;13.892;2023-04-27T13:53:03;50212.75;;;-142.97;21.96
8451;BME280;4262;50.980;13.892;2023-04-27T13:55:30;50224.47;;;-142.97;21.87
8451;BME280;4262;50.980;13.892;2023-04-27T13:57:58;50253.69;;;-142.97;21.85
8451;BME280;4262;50.980;13.892;2023-04-27T14:00:24;50243.94;;;-142.97;21.59
8451;BME280;4262;50.980;13.892;2023-04-27T14:02:53;50230.31;;;-142.97;21.46
8451;BME280;4262;50.980;13.892;2023-04-27T14:05:20;50247.84;;;-142.97;21.20
8451;BME280;4262;50.980;13.892;2023-04-27T14:07:48;50226.41;;;-142.97;21.74
8451;BME280;4262;50.980;13.892;2023-04-27T14:10:16;50253.69;;;-142.97;22.30
8451;BME280;4262;50.980;13.892;2023-04-27T14:12:43;50234.19;;;-142.97;21.88
8451;BME280;4262;50.980;13.892;2023-04-27T14:15:10;50238.09;;;-142.97;22.21
8451;BME280;4262;50.980;13.892;2023-04-27T14:17:37;50271.25;;;-142.97;22.70
8451;BME280;4262;50.980;13.892;2023-04-27T14:20:05;50263.44;;;-142.97;23.26
8451;BME280;4262;50.980;13.892;2023-04-27T14:22:32;50259.56;;;-142.97;22.21
8451;BME280;4262;50.980;13.892;2023-04-27T14:24:59;50273.19;;;-142.97;22.38
8451;BME280;4262;50.980;13.892;2023-04-27T14:27:27;50251.75;;;-142.97;21.87
8451;BME280;4262;50.980;13.892;2023-04-27T14:29:54;50238.09;;;-142.97;22.22
8451;BME280;4262;50.980;13.892;2023-04-27T14:32:21;50253.69;;;-142.97;21.63
8451;BME280;4262;50.980;13.892;2023-04-27T14:34:48;50279.03;;;-142.97;21.79
8451;BME280;4262;50.980;13.892;2023-04-27T14:37:15;50263.44;;;-142.97;22.49
8451;BME280;4262;50.980;13.892;2023-04-27T14:39:44;50263.44;;;-142.97;21.75
8451;BME280;4262;50.980;13.892;2023-04-27T14:42:11;50269.28;;;-142.97;23.15
8451;BME280;4262;50.980;13.892;2023-04-27T14:44:39;50263.44;;;-142.97;22.93
8451;BME280;4262;50.980;13.892;2023-04-27T14:47:06;50281.00;;;-142.97;22.52
8451;BME280;4262;50.980;13.892;2023-04-27T14:49:33;50265.41;;;-142.97;22.56
8451;BME280;4262;50.980;13.892;2023-04-27T14:52:00;50269.28;;;-142.97;22.98
8451;BME280;4262;50.980;13.892;2023-04-27T14:54:29;50277.09;;;-142.97;22.69
8451;BME280;4262;50.980;13.892;2023-04-27T14:56:56;50251.75;;;-142.97;22.40
8451;BME280;4262;50.980;13.892;2023-04-27T14:59:24;50269.28;;;-142.97;22.32
8451;BME280;4262;50.980;13.892;2023-04-27T15:01:52;50286.84;;;-142.97;22.13
8451;BME280;4262;50.980;13.892;2023-04-27T15:04:19;50298.53;;;-142.97;22.61
8451;BME280;4262;50.980;13.892;2023-04-27T15:06:45;50271.25;;;-142.97;22.81
8451;BME280;4262;50.980;13.892;2023-04-27T15:09:13;50275.16;;;-142.97;22.36
8451;BME280;4262;50.980;13.892;2023-04-27T15:11:40;50269.28;;;-142.97;22.26
8451;BME280;4262;50.980;13.892;2023-04-27T15:14:07;50255.66;;;-142.97;22.38
8451;BME280;4262;50.980;13.892;2023-04-27T15:16:34;50255.66;;;-142.97;22.38
8451;BME280;4262;50.980;13.892;2023-04-27T15:19:03;50282.94;;;-142.97;22.77
8451;BME280;4262;50.980;13.892;2023-04-27T15:21:31;50245.91;;;-142.97;22.43
8451;BME280;4262;50.980;13.892;2023-04-27T15:23:57;50271.25;;;-142.97;23.54
8451;BME280;4262;50.980;13.892;2023-04-27T15:26:24;50288.78;;;-142.97;22.66
8451;BME280;4262;50.980;13.892;2023-04-27T15:28:53;50302.44;;;-142.97;22.62
8451;BME280;4262;50.980;13.892;2023-04-27T15:31:19;50290.75;;;-142.97;23.11
8451;BME280;4262;50.980;13.892;2023-04-27T15:33:46;50277.09;;;-142.97;22.69
8451;BME280;4262;50.980;13.892;2023-04-27T15:36:14;50281.00;;;-142.97;22.40
8451;BME280;4262;50.980;13.892;2023-04-27T15:38:43;50308.28;;;-142.97;22.36
8451;BME280;4262;50.980;13.892;2023-04-27T15:41:10;50308.28;;;-142.97;22.62
8451;BME280;4262;50.980;13.892;2023-04-27T15:43:37;50281.00;;;-142.97;23.36
8451;BME280;4262;50.980;13.892;2023-04-27T15:46:04;50273.19;;;-142.97;23.27
8451;BME280;4262;50.980;13.892;2023-04-27T15:48:32;50271.25;;;-142.97;23.54
8451;BME280;4262;50.980;13.892;2023-04-27T15:50:59;50269.28;;;-142.97;23.87
8451;BME280;4262;50.980;13.892;2023-04-27T15:53:28;50279.03;;;-142.97;23.86
8451;BME280;4262;50.980;13.892;2023-04-27T15:55:56;50281.00;;;-142.97;23.28
8451;BME280;4262;50.980;13.892;2023-04-27T15:58:24;50281.00;;;-142.97;23.38
8451;BME280;4262;50.980;13.892;2023-04-27T16:00:52;50255.66;;;-142.97;22.83
8451;BME280;4262;50.980;13.892;2023-04-27T16:03:18;50318.03;;;-142.97;22.35
8451;BME280;4262;50.980;13.892;2023-04-27T16:05:48;50298.53;;;-142.97;22.95
8451;BME280;4262;50.980;13.892;2023-04-27T16:08:15;50286.84;;;-142.97;23.51
8451;BME280;4262;50.980;13.892;2023-04-27T16:10:43;50265.41;;;-142.97;23.66
8451;BME280;4262;50.980;13.892;2023-04-27T16:13:10;50247.84;;;-142.97;23.03
8451;BME280;4262;50.980;13.892;2023-04-27T16:15:37;50271.25;;;-142.97;22.84
8451;BME280;4262;50.980;13.892;2023-04-27T16:18:04;50282.94;;;-142.97;23.51
8451;BME280;4262;50.980;13.892;2023-04-27T16:20:31;50288.78;;;-142.97;22.91
8451;BME280;4262;50.980;13.892;2023-04-27T16:22:58;50286.84;;;-142.97;23.42
8451;BME280;4262;50.980;13.892;2023-04-27T16:25:25;50292.69;;;-142.97;22.61